sensor_id;sensor_type;location;lat;lon;timestamp;P1;durP1;ratioP1;P2;durP2;ratioP2
5323;SDS011;2684;48.154;11.538;2022-07-29T00:01:43;12.47;;;11.57;;
5323;SDS011;2684;48.154;11.538;2022-07-29T00:04:10;13.00;;;12.10;;
5323;SDS011;2684;48.154;11.538;2022-07-29T00:06:37;12.37;;;11.57;;
5323;SDS011;2684;48.154;11.538;2022-07-29T00:09:04;12.30;;;11.50;;
5323;SDS011;2684;48.154;11.538;2022-07-29T00:11:31;12.47;;;11.67;;
5323;SDS011;2684;48.154;11.538;2022-07-29T00:13:59;12.50;;;11.60;;
5323;SDS011;2684;48.154;11.538;2022-07-29T00:16:26;13.00;;;12.00;;
5323;SDS011;2684;48.154;11.538;2022-07-29T00:18:53;13.33;;;12.33;;
5323;SDS011;2684;48.154;11.538;2022-07-29T00:21:20;13.00;;;12.00;;
5323;SDS011;2684;48.154;11.538;2022-07-29T00:23:47;12.97;;;12.00;;
5323;SDS011;2684;48.154;11.538;2022-07-29T00:26:14;13.20;;;12.30;;
5323;SDS011;2684;48.154;11.538;2022-07-29T00:28:40;13.07;;;12.20;;
5323;SDS011;2684;48.154;11.538;2022-07-29T00:31:09;13.10;;;12.20;;
5323;SDS011;2684;48.154;11.538;2022-07-29T00:33:35;12.83;;;11.90;;
5323;SDS011;2684;48.154;11.538;2022-07-29T00:36:02;12.43;;;11.63;;
5323;SDS011;2684;48.154;11.538;2022-07-29T00:38:29;12.80;;;11.73;;
5323;SDS011;2684;48.154;11.538;2022-07-29T00:40:56;12.67;;;11.67;;
5323;SDS011;2684;48.154;11.538;2022-07-29T00:43:23;12.73;;;11.83;;
5323;SDS011;2684;48.154;11.538;2022-07-29T00:45:50;12.40;;;11.50;;
5323;SDS011;2684;48.154;11.538;2022-07-29T00:48:18;12.43;;;11.53;;
5323;SDS011;2684;48.154;11.538;2022-07-29T00:50:45;12.50;;;11.70;;
5323;SDS011;2684;48.154;11.538;2022-07-29T00:53:12;12.40;;;11.60;;
5323;SDS011;2684;48.154;11.538;2022-07-29T00:55:39;12.80;;;11.90;;
5323;SDS011;2684;48.154;11.538;2022-07-29T00:58:06;12.63;;;11.73;;
5323;SDS011;2684;48.154;11.538;2022-07-29T01:00:33;12.60;;;11.60;;
5323;SDS011;2684;48.154;11.538;2022-07-29T01:03:01;12.30;;;11.50;;
5323;SDS011;2684;48.154;11.538;2022-07-29T01:05:29;13.00;;;12.10;;
5323;SDS011;2684;48.154;11.538;2022-07-29T01:07:57;12.43;;;11.63;;
5323;SDS011;2684;48.154;11.538;2022-07-29T01:10:24;12.73;;;11.87;;
5323;SDS011;2684;48.154;11.538;2022-07-29T01:12:52;12.60;;;11.80;;
5323;SDS011;2684;48.154;11.538;2022-07-29T01:15:23;12.80;;;11.90;;
5323;SDS011;2684;48.154;11.538;2022-07-29T01:17:52;12.40;;;11.40;;
5323;SDS011;2684;48.154;11.538;2022-07-29T01:20:26;12.20;;;11.40;;
5323;SDS011;2684;48.154;11.538;2022-07-29T01:26:14;12.40;;;11.60;;
5323;SDS011;2684;48.154;11.538;2022-07-29T01:29:02;12.20;;;11.40;;
5323;SDS011;2684;48.154;11.538;2022-07-29T01:31:41;11.73;;;11.03;;
5323;SDS011;2684;48.154;11.538;2022-07-29T01:34:15;12.27;;;11.47;;
5323;SDS011;2684;48.154;11.538;2022-07-29T01:36:48;12.30;;;11.50;;
5323;SDS011;2684;48.154;11.538;2022-07-29T01:39:23;11.60;;;10.90;;
5323;SDS011;2684;48.154;11.538;2022-07-29T01:41:57;12.10;;;11.30;;
5323;SDS011;2684;48.154;11.538;2022-07-29T01:44:32;12.50;;;11.60;;
5323;SDS011;2684;48.154;11.538;2022-07-29T01:47:05;12.07;;;11.27;;
5323;SDS011;2684;48.154;11.538;2022-07-29T01:49:39;11.87;;;11.17;;
5323;SDS011;2684;48.154;11.538;2022-07-29T01:52:13;11.93;;;11.23;;
5323;SDS011;2684;48.154;11.538;2022-07-29T01:54:47;11.60;;;10.90;;
5323;SDS011;2684;48.154;11.538;2022-07-29T01:57:18;11.90;;;11.10;;
5323;SDS011;2684;48.154;11.538;2022-07-29T01:59:52;12.00;;;11.30;;
5323;SDS011;2684;48.154;11.538;2022-07-29T02:02:20;11.90;;;11.20;;
5323;SDS011;2684;48.154;11.538;2022-07-29T02:04:48;11.77;;;11.07;;
5323;SDS011;2684;48.154;11.538;2022-07-29T02:07:18;12.00;;;11.30;;
5323;SDS011;2684;48.154;11.538;2022-07-29T02:09:47;12.70;;;11.70;;
5323;SDS011;2684;48.154;11.538;2022-07-29T02:12:15;12.23;;;11.43;;
5323;SDS011;2684;48.154;11.538;2022-07-29T02:14:44;12.57;;;11.70;;
5323;SDS011;2684;48.154;11.538;2022-07-29T02:17:15;12.40;;;11.50;;
5323;SDS011;2684;48.154;11.538;2022-07-29T02:19:47;12.50;;;11.50;;
5323;SDS011;2684;48.154;11.538;2022-07-29T02:22:15;11.60;;;10.90;;
5323;SDS011;2684;48.154;11.538;2022-07-29T02:24:44;12.17;;;11.37;;
5323;SDS011;2684;48.154;11.538;2022-07-29T02:27:12;12.03;;;11.23;;
5323;SDS011;2684;48.154;11.538;2022-07-29T02:29:40;12.77;;;11.50;;
5323;SDS011;2684;48.154;11.538;2022-07-29T02:32:07;12.80;;;11.83;;
5323;SDS011;2684;48.154;11.538;2022-07-29T02:34:38;12.00;;;11.20;;
5323;SDS011;2684;48.154;11.538;2022-07-29T02:37:07;12.27;;;11.50;;
5323;SDS011;2684;48.154;11.538;2022-07-29T02:39:36;12.30;;;11.50;;
5323;SDS011;2684;48.154;11.538;2022-07-29T02:42:05;12.33;;;11.53;;
5323;SDS011;2684;48.154;11.538;2022-07-29T02:44:34;12.37;;;11.57;;
5323;SDS011;2684;48.154;11.538;2022-07-29T02:47:02;11.90;;;11.20;;
5323;SDS011;2684;48.154;11.538;2022-07-29T02:49:42;11.90;;;11.20;;
5323;SDS011;2684;48.154;11.538;2022-07-29T02:52:18;12.40;;;11.60;;
5323;SDS011;2684;48.154;11.538;2022-07-29T02:54:53;12.60;;;11.50;;
5323;SDS011;2684;48.154;11.538;2022-07-29T02:57:22;12.40;;;11.60;;
5323;SDS011;2684;48.154;11.538;2022-07-29T02:59:57;12.37;;;11.57;;
5323;SDS011;2684;48.154;11.538;2022-07-29T03:02:29;12.40;;;11.60;;
5323;SDS011;2684;48.154;11.538;2022-07-29T03:05:02;12.50;;;11.70;;
5323;SDS011;2684;48.154;11.538;2022-07-29T03:07:34;12.33;;;11.53;;
5323;SDS011;2684;48.154;11.538;2022-07-29T03:10:03;13.17;;;12.07;;
5323;SDS011;2684;48.154;11.538;2022-07-29T03:12:32;12.60;;;11.70;;
5323;SDS011;2684;48.154;11.538;2022-07-29T03:14:59;12.40;;;11.50;;
5323;SDS011;2684;48.154;11.538;2022-07-29T03:17:27;12.10;;;11.40;;
5323;SDS011;2684;48.154;11.538;2022-07-29T03:19:56;13.90;;;12.80;;
5323;SDS011;2684;48.154;11.538;2022-07-29T03:22:26;13.20;;;12.30;;
5323;SDS011;2684;48.154;11.538;2022-07-29T03:24:53;12.87;;;12.00;;
5323;SDS011;2684;48.154;11.538;2022-07-29T03:27:20;13.00;;;12.10;;
5323;SDS011;2684;48.154;11.538;2022-07-29T03:29:47;12.30;;;11.50;;
5323;SDS011;2684;48.154;11.538;2022-07-29T03:32:14;13.00;;;12.10;;
5323;SDS011;2684;48.154;11.538;2022-07-29T03:34:41;12.63;;;11.80;;
5323;SDS011;2684;48.154;11.538;2022-07-29T03:37:08;12.80;;;12.00;;
5323;SDS011;2684;48.154;11.538;2022-07-29T03:39:38;12.50;;;11.70;;
5323;SDS011;2684;48.154;11.538;2022-07-29T03:42:08;12.60;;;11.80;;
5323;SDS011;2684;48.154;11.538;2022-07-29T03:44:38;12.70;;;11.87;;
5323;SDS011;2684;48.154;11.538;2022-07-29T03:47:07;12.60;;;11.70;;
5323;SDS011;2684;48.154;11.538;2022-07-29T03:49:36;12.97;;;12.10;;
5323;SDS011;2684;48.154;11.538;2022-07-29T03:52:05;12.87;;;12.00;;
5323;SDS011;2684;48.154;11.538;2022-07-29T03:54:32;13.23;;;12.33;;
5323;SDS011;2684;48.154;11.538;2022-07-29T03:57:01;12.90;;;12.00;;
5323;SDS011;2684;48.154;11.538;2022-07-29T03:59:29;12.13;;;11.33;;
5323;SDS011;2684;48.154;11.538;2022-07-29T04:01:58;13.10;;;12.20;;
5323;SDS011;2684;48.154;11.538;2022-07-29T04:04:27;12.63;;;11.83;;
5323;SDS011;2684;48.154;11.538;2022-07-29T04:06:54;13.03;;;12.00;;
5323;SDS011;2684;48.154;11.538;2022-07-29T04:09:21;13.60;;;12.70;;
5323;SDS011;2684;48.154;11.538;2022-07-29T04:11:48;12.13;;;11.33;;
5323;SDS011;2684;48.154;11.538;2022-07-29T04:14:17;14.03;;;12.73;;
5323;SDS011;2684;48.154;11.538;2022-07-29T04:16:44;12.40;;;11.63;;
5323;SDS011;2684;48.154;11.538;2022-07-29T04:19:11;13.10;;;12.20;;
5323;SDS011;2684;48.154;11.538;2022-07-29T04:21:37;14.10;;;11.67;;
5323;SDS011;2684;48.154;11.538;2022-07-29T04:24:05;12.43;;;11.63;;
5323;SDS011;2684;48.154;11.538;2022-07-29T04:26:33;13.50;;;12.60;;
5323;SDS011;2684;48.154;11.538;2022-07-29T04:29:01;13.50;;;12.57;;
5323;SDS011;2684;48.154;11.538;2022-07-29T04:31:29;15.17;;;13.60;;
5323;SDS011;2684;48.154;11.538;2022-07-29T04:33:56;13.20;;;12.30;;
5323;SDS011;2684;48.154;11.538;2022-07-29T04:36:23;13.80;;;12.80;;
5323;SDS011;2684;48.154;11.538;2022-07-29T04:38:49;13.73;;;12.43;;
5323;SDS011;2684;48.154;11.538;2022-07-29T04:41:16;13.43;;;12.53;;
5323;SDS011;2684;48.154;11.538;2022-07-29T04:43:43;13.63;;;12.63;;
5323;SDS011;2684;48.154;11.538;2022-07-29T04:46:10;14.10;;;13.10;;
5323;SDS011;2684;48.154;11.538;2022-07-29T04:48:38;13.30;;;12.30;;
5323;SDS011;2684;48.154;11.538;2022-07-29T04:51:05;14.40;;;13.30;;
5323;SDS011;2684;48.154;11.538;2022-07-29T04:53:32;13.90;;;12.60;;
5323;SDS011;2684;48.154;11.538;2022-07-29T04:55:59;14.47;;;13.40;;
5323;SDS011;2684;48.154;11.538;2022-07-29T04:58:26;14.47;;;13.30;;
5323;SDS011;2684;48.154;11.538;2022-07-29T05:00:52;14.57;;;13.30;;
5323;SDS011;2684;48.154;11.538;2022-07-29T05:03:21;13.97;;;12.97;;
5323;SDS011;2684;48.154;11.538;2022-07-29T05:05:49;15.00;;;13.80;;
5323;SDS011;2684;48.154;11.538;2022-07-29T05:08:16;14.27;;;13.27;;
5323;SDS011;2684;48.154;11.538;2022-07-29T05:10:42;14.87;;;13.73;;
5323;SDS011;2684;48.154;11.538;2022-07-29T05:13:10;14.33;;;13.23;;
5323;SDS011;2684;48.154;11.538;2022-07-29T05:15:37;17.33;;;15.73;;
5323;SDS011;2684;48.154;11.538;2022-07-29T05:18:03;14.93;;;13.73;;
5323;SDS011;2684;48.154;11.538;2022-07-29T05:20:31;15.00;;;13.70;;
5323;SDS011;2684;48.154;11.538;2022-07-29T05:23:00;14.10;;;13.00;;
5323;SDS011;2684;48.154;11.538;2022-07-29T05:25:28;17.77;;;13.50;;
5323;SDS011;2684;48.154;11.538;2022-07-29T05:27:56;15.97;;;14.57;;
5323;SDS011;2684;48.154;11.538;2022-07-29T05:30:24;14.20;;;13.10;;
5323;SDS011;2684;48.154;11.538;2022-07-29T05:32:51;13.90;;;12.90;;
5323;SDS011;2684;48.154;11.538;2022-07-29T05:35:18;13.87;;;12.87;;
5323;SDS011;2684;48.154;11.538;2022-07-29T05:37:45;14.40;;;13.20;;
5323;SDS011;2684;48.154;11.538;2022-07-29T05:40:13;14.67;;;13.57;;
5323;SDS011;2684;48.154;11.538;2022-07-29T05:42:40;13.93;;;12.83;;
5323;SDS011;2684;48.154;11.538;2022-07-29T05:45:07;14.23;;;13.00;;
5323;SDS011;2684;48.154;11.538;2022-07-29T05:47:35;13.80;;;12.80;;
5323;SDS011;2684;48.154;11.538;2022-07-29T05:50:02;14.20;;;13.20;;
5323;SDS011;2684;48.154;11.538;2022-07-29T05:52:29;13.30;;;12.40;;
5323;SDS011;2684;48.154;11.538;2022-07-29T05:54:56;15.33;;;13.73;;
5323;SDS011;2684;48.154;11.538;2022-07-29T05:57:24;13.63;;;12.63;;
5323;SDS011;2684;48.154;11.538;2022-07-29T05:59:52;13.77;;;12.67;;
5323;SDS011;2684;48.154;11.538;2022-07-29T06:02:19;13.93;;;12.93;;
5323;SDS011;2684;48.154;11.538;2022-07-29T06:04:46;14.87;;;13.57;;
5323;SDS011;2684;48.154;11.538;2022-07-29T06:07:14;13.80;;;12.80;;
5323;SDS011;2684;48.154;11.538;2022-07-29T06:09:41;13.57;;;12.57;;
5323;SDS011;2684;48.154;11.538;2022-07-29T06:12:08;14.27;;;13.07;;
5323;SDS011;2684;48.154;11.538;2022-07-29T06:14:36;14.37;;;13.17;;
5323;SDS011;2684;48.154;11.538;2022-07-29T06:17:03;13.80;;;12.80;;
5323;SDS011;2684;48.154;11.538;2022-07-29T06:19:30;15.57;;;13.97;;
5323;SDS011;2684;48.154;11.538;2022-07-29T06:22:00;15.10;;;13.57;;
5323;SDS011;2684;48.154;11.538;2022-07-29T06:24:27;14.10;;;13.10;;
5323;SDS011;2684;48.154;11.538;2022-07-29T06:26:54;13.60;;;12.60;;
5323;SDS011;2684;48.154;11.538;2022-07-29T06:29:21;14.00;;;12.87;;
5323;SDS011;2684;48.154;11.538;2022-07-29T06:31:50;14.60;;;13.47;;
5323;SDS011;2684;48.154;11.538;2022-07-29T06:34:18;16.77;;;13.40;;
5323;SDS011;2684;48.154;11.538;2022-07-29T06:36:45;14.33;;;13.07;;
5323;SDS011;2684;48.154;11.538;2022-07-29T06:39:12;14.00;;;12.90;;
5323;SDS011;2684;48.154;11.538;2022-07-29T06:41:39;15.23;;;13.93;;
5323;SDS011;2684;48.154;11.538;2022-07-29T06:44:06;13.83;;;12.83;;
5323;SDS011;2684;48.154;11.538;2022-07-29T06:46:32;14.13;;;13.13;;
5323;SDS011;2684;48.154;11.538;2022-07-29T06:49:01;14.00;;;13.00;;
5323;SDS011;2684;48.154;11.538;2022-07-29T06:51:28;13.90;;;12.90;;
5323;SDS011;2684;48.154;11.538;2022-07-29T06:53:56;14.50;;;13.30;;
5323;SDS011;2684;48.154;11.538;2022-07-29T06:56:23;14.87;;;13.67;;
5323;SDS011;2684;48.154;11.538;2022-07-29T06:58:50;13.83;;;12.83;;
5323;SDS011;2684;48.154;11.538;2022-07-29T07:01:17;14.20;;;13.20;;
5323;SDS011;2684;48.154;11.538;2022-07-29T07:03:44;14.00;;;13.00;;
5323;SDS011;2684;48.154;11.538;2022-07-29T07:06:13;14.93;;;13.80;;
5323;SDS011;2684;48.154;11.538;2022-07-29T07:08:40;14.20;;;13.10;;
5323;SDS011;2684;48.154;11.538;2022-07-29T07:11:08;13.87;;;12.87;;
5323;SDS011;2684;48.154;11.538;2022-07-29T07:13:35;14.27;;;13.20;;
5323;SDS011;2684;48.154;11.538;2022-07-29T07:16:02;14.43;;;13.33;;
5323;SDS011;2684;48.154;11.538;2022-07-29T07:18:30;14.50;;;13.40;;
5323;SDS011;2684;48.154;11.538;2022-07-29T07:20:57;14.20;;;13.17;;
5323;SDS011;2684;48.154;11.538;2022-07-29T07:23:26;14.10;;;13.00;;
5323;SDS011;2684;48.154;11.538;2022-07-29T07:25:53;14.53;;;13.43;;
5323;SDS011;2684;48.154;11.538;2022-07-29T07:28:20;14.10;;;13.10;;
5323;SDS011;2684;48.154;11.538;2022-07-29T07:30:49;14.60;;;13.53;;
5323;SDS011;2684;48.154;11.538;2022-07-29T07:33:16;14.80;;;13.60;;
5323;SDS011;2684;48.154;11.538;2022-07-29T07:35:43;14.10;;;12.87;;
5323;SDS011;2684;48.154;11.538;2022-07-29T07:38:10;13.90;;;12.90;;
5323;SDS011;2684;48.154;11.538;2022-07-29T07:40:38;14.90;;;13.73;;
5323;SDS011;2684;48.154;11.538;2022-07-29T07:43:06;14.20;;;13.20;;
5323;SDS011;2684;48.154;11.538;2022-07-29T07:45:34;13.23;;;12.33;;
5323;SDS011;2684;48.154;11.538;2022-07-29T07:48:03;14.70;;;13.60;;
5323;SDS011;2684;48.154;11.538;2022-07-29T07:50:30;14.07;;;13.07;;
5323;SDS011;2684;48.154;11.538;2022-07-29T07:52:57;14.30;;;13.27;;
5323;SDS011;2684;48.154;11.538;2022-07-29T07:55:27;14.10;;;13.10;;
5323;SDS011;2684;48.154;11.538;2022-07-29T07:57:56;29.90;;;22.60;;
5323;SDS011;2684;48.154;11.538;2022-07-29T08:00:23;15.20;;;14.00;;
5323;SDS011;2684;48.154;11.538;2022-07-29T08:02:50;15.67;;;14.37;;
5323;SDS011;2684;48.154;11.538;2022-07-29T08:05:17;14.10;;;13.10;;
5323;SDS011;2684;48.154;11.538;2022-07-29T08:07:45;14.10;;;13.10;;
5323;SDS011;2684;48.154;11.538;2022-07-29T08:10:13;14.50;;;13.23;;
5323;SDS011;2684;48.154;11.538;2022-07-29T08:13:03;14.30;;;13.20;;
5323;SDS011;2684;48.154;11.538;2022-07-29T08:15:31;14.40;;;13.30;;
5323;SDS011;2684;48.154;11.538;2022-07-29T08:17:58;14.40;;;13.27;;
5323;SDS011;2684;48.154;11.538;2022-07-29T08:20:25;13.90;;;12.90;;
5323;SDS011;2684;48.154;11.538;2022-07-29T08:22:52;13.97;;;12.90;;
5323;SDS011;2684;48.154;11.538;2022-07-29T08:25:19;14.00;;;13.00;;
5323;SDS011;2684;48.154;11.538;2022-07-29T08:27:47;13.70;;;12.60;;
5323;SDS011;2684;48.154;11.538;2022-07-29T08:30:16;13.50;;;12.60;;
5323;SDS011;2684;48.154;11.538;2022-07-29T08:32:43;14.47;;;13.47;;
5323;SDS011;2684;48.154;11.538;2022-07-29T08:35:09;14.70;;;13.30;;
5323;SDS011;2684;48.154;11.538;2022-07-29T08:37:36;14.13;;;13.13;;
5323;SDS011;2684;48.154;11.538;2022-07-29T08:40:04;15.10;;;14.00;;
5323;SDS011;2684;48.154;11.538;2022-07-29T08:42:32;14.60;;;13.50;;
5323;SDS011;2684;48.154;11.538;2022-07-29T08:44:59;14.90;;;13.63;;
5323;SDS011;2684;48.154;11.538;2022-07-29T08:47:28;14.20;;;13.20;;
5323;SDS011;2684;48.154;11.538;2022-07-29T08:49:56;14.60;;;13.40;;
5323;SDS011;2684;48.154;11.538;2022-07-29T08:52:23;15.13;;;13.90;;
5323;SDS011;2684;48.154;11.538;2022-07-29T08:54:52;15.53;;;14.23;;
5323;SDS011;2684;48.154;11.538;2022-07-29T08:57:19;13.80;;;12.80;;
5323;SDS011;2684;48.154;11.538;2022-07-29T08:59:48;14.10;;;13.00;;
5323;SDS011;2684;48.154;11.538;2022-07-29T09:02:19;16.73;;;15.23;;
5323;SDS011;2684;48.154;11.538;2022-07-29T09:04:48;14.10;;;13.10;;
5323;SDS011;2684;48.154;11.538;2022-07-29T09:07:16;14.60;;;13.50;;
5323;SDS011;2684;48.154;11.538;2022-07-29T09:09:44;14.67;;;13.57;;
5323;SDS011;2684;48.154;11.538;2022-07-29T09:12:12;15.10;;;13.83;;
5323;SDS011;2684;48.154;11.538;2022-07-29T09:14:39;15.10;;;13.90;;
5323;SDS011;2684;48.154;11.538;2022-07-29T09:17:07;18.30;;;16.27;;
5323;SDS011;2684;48.154;11.538;2022-07-29T09:19:36;14.90;;;13.60;;
5323;SDS011;2684;48.154;11.538;2022-07-29T09:22:06;14.67;;;13.57;;
5323;SDS011;2684;48.154;11.538;2022-07-29T09:24:41;13.97;;;12.97;;
5323;SDS011;2684;48.154;11.538;2022-07-29T09:27:11;14.33;;;13.33;;
5323;SDS011;2684;48.154;11.538;2022-07-29T09:29:47;13.97;;;12.97;;
5323;SDS011;2684;48.154;11.538;2022-07-29T09:32:22;14.03;;;13.07;;
5323;SDS011;2684;48.154;11.538;2022-07-29T09:34:51;14.60;;;13.50;;
5323;SDS011;2684;48.154;11.538;2022-07-29T09:37:43;14.40;;;13.40;;
5323;SDS011;2684;48.154;11.538;2022-07-29T09:40:12;14.97;;;13.60;;
5323;SDS011;2684;48.154;11.538;2022-07-29T09:42:40;15.23;;;14.03;;
5323;SDS011;2684;48.154;11.538;2022-07-29T09:45:08;14.60;;;13.40;;
5323;SDS011;2684;48.154;11.538;2022-07-29T09:47:42;14.30;;;13.30;;
5323;SDS011;2684;48.154;11.538;2022-07-29T09:50:14;15.20;;;14.00;;
5323;SDS011;2684;48.154;11.538;2022-07-29T09:52:46;14.20;;;13.20;;
5323;SDS011;2684;48.154;11.538;2022-07-29T09:55:15;14.90;;;13.80;;
5323;SDS011;2684;48.154;11.538;2022-07-29T09:57:43;14.70;;;13.50;;
5323;SDS011;2684;48.154;11.538;2022-07-29T10:00:11;14.63;;;13.53;;
5323;SDS011;2684;48.154;11.538;2022-07-29T10:02:41;14.70;;;13.60;;
5323;SDS011;2684;48.154;11.538;2022-07-29T10:05:16;14.87;;;13.77;;
5323;SDS011;2684;48.154;11.538;2022-07-29T10:07:47;14.70;;;13.60;;
5323;SDS011;2684;48.154;11.538;2022-07-29T10:10:20;14.93;;;13.83;;
5323;SDS011;2684;48.154;11.538;2022-07-29T10:12:49;15.23;;;14.03;;
5323;SDS011;2684;48.154;11.538;2022-07-29T10:15:18;14.30;;;13.30;;
5323;SDS011;2684;48.154;11.538;2022-07-29T10:17:47;14.70;;;13.60;;
5323;SDS011;2684;48.154;11.538;2022-07-29T10:20:15;15.37;;;14.17;;
5323;SDS011;2684;48.154;11.538;2022-07-29T10:22:42;15.73;;;14.43;;
5323;SDS011;2684;48.154;11.538;2022-07-29T10:25:13;14.60;;;13.47;;
5323;SDS011;2684;48.154;11.538;2022-07-29T10:27:41;14.90;;;13.60;;
5323;SDS011;2684;48.154;11.538;2022-07-29T10:30:09;14.97;;;13.80;;
5323;SDS011;2684;48.154;11.538;2022-07-29T10:32:48;15.20;;;14.10;;
5323;SDS011;2684;48.154;11.538;2022-07-29T10:38:32;14.97;;;13.80;;
5323;SDS011;2684;48.154;11.538;2022-07-29T10:41:23;15.47;;;14.27;;
5323;SDS011;2684;48.154;11.538;2022-07-29T10:44:09;15.53;;;14.33;;
5323;SDS011;2684;48.154;11.538;2022-07-29T10:46:41;15.30;;;13.97;;
5323;SDS011;2684;48.154;11.538;2022-07-29T10:49:12;15.80;;;14.60;;
5323;SDS011;2684;48.154;11.538;2022-07-29T10:51:56;14.67;;;13.53;;
5323;SDS011;2684;48.154;11.538;2022-07-29T10:54:41;15.37;;;14.17;;
5323;SDS011;2684;48.154;11.538;2022-07-29T10:57:21;15.23;;;14.03;;
5323;SDS011;2684;48.154;11.538;2022-07-29T11:02:51;14.50;;;13.40;;
5323;SDS011;2684;48.154;11.538;2022-07-29T11:05:20;14.23;;;13.23;;
5323;SDS011;2684;48.154;11.538;2022-07-29T11:10:46;13.87;;;12.87;;
5323;SDS011;2684;48.154;11.538;2022-07-29T11:16:15;14.40;;;13.40;;
5323;SDS011;2684;48.154;11.538;2022-07-29T11:21:48;14.80;;;13.60;;
5323;SDS011;2684;48.154;11.538;2022-07-29T11:24:17;14.33;;;13.23;;
5323;SDS011;2684;48.154;11.538;2022-07-29T11:29:40;14.50;;;13.50;;
5323;SDS011;2684;48.154;11.538;2022-07-29T11:32:15;14.40;;;13.40;;
5323;SDS011;2684;48.154;11.538;2022-07-29T11:34:44;14.60;;;13.50;;
5323;SDS011;2684;48.154;11.538;2022-07-29T11:37:13;14.07;;;12.90;;
5323;SDS011;2684;48.154;11.538;2022-07-29T11:42:50;15.23;;;13.90;;
5323;SDS011;2684;48.154;11.538;2022-07-29T11:48:15;14.40;;;13.30;;
5323;SDS011;2684;48.154;11.538;2022-07-29T11:50:44;14.10;;;13.10;;
5323;SDS011;2684;48.154;11.538;2022-07-29T11:53:11;14.60;;;13.30;;
5323;SDS011;2684;48.154;11.538;2022-07-29T11:55:40;15.00;;;13.90;;
5323;SDS011;2684;48.154;11.538;2022-07-29T11:58:08;17.83;;;16.33;;
5323;SDS011;2684;48.154;11.538;2022-07-29T12:00:36;15.33;;;14.13;;
5323;SDS011;2684;48.154;11.538;2022-07-29T12:03:08;14.30;;;13.20;;
5323;SDS011;2684;48.154;11.538;2022-07-29T12:05:37;14.80;;;13.50;;
5323;SDS011;2684;48.154;11.538;2022-07-29T12:08:09;14.93;;;13.53;;
5323;SDS011;2684;48.154;11.538;2022-07-29T12:10:38;14.70;;;13.67;;
5323;SDS011;2684;48.154;11.538;2022-07-29T12:13:06;14.50;;;13.50;;
5323;SDS011;2684;48.154;11.538;2022-07-29T12:15:33;14.83;;;13.70;;
5323;SDS011;2684;48.154;11.538;2022-07-29T12:18:12;14.73;;;13.67;;
5323;SDS011;2684;48.154;11.538;2022-07-29T12:20:40;14.87;;;13.67;;
5323;SDS011;2684;48.154;11.538;2022-07-29T12:23:08;15.67;;;14.40;;
5323;SDS011;2684;48.154;11.538;2022-07-29T12:25:38;13.93;;;12.90;;
5323;SDS011;2684;48.154;11.538;2022-07-29T12:28:08;14.40;;;13.30;;
5323;SDS011;2684;48.154;11.538;2022-07-29T12:30:41;14.13;;;13.03;;
5323;SDS011;2684;48.154;11.538;2022-07-29T12:33:13;14.33;;;13.10;;
5323;SDS011;2684;48.154;11.538;2022-07-29T12:35:45;13.93;;;13.03;;
5323;SDS011;2684;48.154;11.538;2022-07-29T12:38:14;14.30;;;13.30;;
5323;SDS011;2684;48.154;11.538;2022-07-29T12:40:42;13.90;;;12.83;;
5323;SDS011;2684;48.154;11.538;2022-07-29T12:43:11;14.43;;;13.17;;
5323;SDS011;2684;48.154;11.538;2022-07-29T12:45:41;16.47;;;14.87;;
5323;SDS011;2684;48.154;11.538;2022-07-29T12:48:09;14.80;;;13.67;;
5323;SDS011;2684;48.154;11.538;2022-07-29T12:50:51;15.17;;;13.97;;
5323;SDS011;2684;48.154;11.538;2022-07-29T12:53:23;15.43;;;14.20;;
5323;SDS011;2684;48.154;11.538;2022-07-29T12:55:51;14.63;;;13.53;;
5323;SDS011;2684;48.154;11.538;2022-07-29T12:58:25;14.97;;;13.77;;
5323;SDS011;2684;48.154;11.538;2022-07-29T13:01:00;13.67;;;12.77;;
5323;SDS011;2684;48.154;11.538;2022-07-29T13:03:29;14.77;;;13.70;;
5323;SDS011;2684;48.154;11.538;2022-07-29T13:06:09;17.17;;;13.50;;
5323;SDS011;2684;48.154;11.538;2022-07-29T13:08:58;15.00;;;13.70;;
5323;SDS011;2684;48.154;11.538;2022-07-29T13:11:34;15.07;;;13.87;;
5323;SDS011;2684;48.154;11.538;2022-07-29T13:14:02;15.83;;;14.30;;
5323;SDS011;2684;48.154;11.538;2022-07-29T13:16:30;15.23;;;14.13;;
5323;SDS011;2684;48.154;11.538;2022-07-29T13:19:04;15.33;;;14.13;;
5323;SDS011;2684;48.154;11.538;2022-07-29T13:21:35;15.57;;;14.37;;
5323;SDS011;2684;48.154;11.538;2022-07-29T13:24:02;15.37;;;14.00;;
5323;SDS011;2684;48.154;11.538;2022-07-29T13:26:29;15.00;;;13.80;;
5323;SDS011;2684;48.154;11.538;2022-07-29T13:28:57;14.93;;;13.73;;
5323;SDS011;2684;48.154;11.538;2022-07-29T13:31:24;15.97;;;14.30;;
5323;SDS011;2684;48.154;11.538;2022-07-29T13:33:51;14.33;;;13.33;;
5323;SDS011;2684;48.154;11.538;2022-07-29T13:36:18;14.80;;;13.70;;
5323;SDS011;2684;48.154;11.538;2022-07-29T13:38:46;15.00;;;13.90;;
5323;SDS011;2684;48.154;11.538;2022-07-29T13:41:13;15.67;;;14.27;;
5323;SDS011;2684;48.154;11.538;2022-07-29T13:43:40;15.63;;;14.20;;
5323;SDS011;2684;48.154;11.538;2022-07-29T13:46:07;15.53;;;13.90;;
5323;SDS011;2684;48.154;11.538;2022-07-29T13:48:34;14.40;;;13.40;;
5323;SDS011;2684;48.154;11.538;2022-07-29T13:51:01;15.90;;;14.20;;
5323;SDS011;2684;48.154;11.538;2022-07-29T13:53:28;19.67;;;17.67;;
5323;SDS011;2684;48.154;11.538;2022-07-29T13:55:57;15.60;;;14.30;;
5323;SDS011;2684;48.154;11.538;2022-07-29T13:58:24;14.67;;;13.53;;
5323;SDS011;2684;48.154;11.538;2022-07-29T14:00:51;14.47;;;13.37;;
5323;SDS011;2684;48.154;11.538;2022-07-29T14:03:18;14.90;;;13.70;;
5323;SDS011;2684;48.154;11.538;2022-07-29T14:05:45;14.90;;;13.70;;
5323;SDS011;2684;48.154;11.538;2022-07-29T14:08:12;15.17;;;13.70;;
5323;SDS011;2684;48.154;11.538;2022-07-29T14:10:40;14.77;;;13.67;;
5323;SDS011;2684;48.154;11.538;2022-07-29T14:13:08;13.83;;;12.83;;
5323;SDS011;2684;48.154;11.538;2022-07-29T14:15:35;14.27;;;12.83;;
5323;SDS011;2684;48.154;11.538;2022-07-29T14:18:02;13.70;;;12.73;;
5323;SDS011;2684;48.154;11.538;2022-07-29T14:20:30;13.90;;;12.90;;
5323;SDS011;2684;48.154;11.538;2022-07-29T14:22:57;14.13;;;13.13;;
5323;SDS011;2684;48.154;11.538;2022-07-29T14:25:24;14.20;;;13.20;;
5323;SDS011;2684;48.154;11.538;2022-07-29T14:27:51;15.07;;;13.67;;
5323;SDS011;2684;48.154;11.538;2022-07-29T14:30:20;14.80;;;13.70;;
5323;SDS011;2684;48.154;11.538;2022-07-29T14:32:47;14.50;;;13.30;;
5323;SDS011;2684;48.154;11.538;2022-07-29T14:35:14;13.93;;;13.03;;
5323;SDS011;2684;48.154;11.538;2022-07-29T14:37:41;14.80;;;13.50;;
5323;SDS011;2684;48.154;11.538;2022-07-29T14:40:08;14.87;;;13.67;;
5323;SDS011;2684;48.154;11.538;2022-07-29T14:42:36;14.03;;;13.00;;
5323;SDS011;2684;48.154;11.538;2022-07-29T14:45:04;14.30;;;13.20;;
5323;SDS011;2684;48.154;11.538;2022-07-29T14:47:34;15.00;;;13.80;;
5323;SDS011;2684;48.154;11.538;2022-07-29T14:50:02;14.70;;;13.30;;
5323;SDS011;2684;48.154;11.538;2022-07-29T14:52:30;14.63;;;13.40;;
5323;SDS011;2684;48.154;11.538;2022-07-29T14:54:56;14.50;;;13.50;;
5323;SDS011;2684;48.154;11.538;2022-07-29T14:57:23;14.63;;;13.63;;
5323;SDS011;2684;48.154;11.538;2022-07-29T14:59:50;15.30;;;14.10;;
5323;SDS011;2684;48.154;11.538;2022-07-29T15:02:17;15.67;;;14.47;;
5323;SDS011;2684;48.154;11.538;2022-07-29T15:04:46;14.90;;;13.70;;
5323;SDS011;2684;48.154;11.538;2022-07-29T15:07:13;14.80;;;13.60;;
5323;SDS011;2684;48.154;11.538;2022-07-29T15:09:40;14.70;;;13.50;;
5323;SDS011;2684;48.154;11.538;2022-07-29T15:12:10;15.00;;;13.70;;